sensor_id;sensor_type;location;lat;lon;timestamp;P1;durP1;ratioP1;P2;durP2;ratioP2
68176;SDS011;56478;50.982;7.032;2023-08-06T00:00:18;2.75;;;2.53;;
68176;SDS011;56478;50.982;7.032;2023-08-06T00:02:44;6.82;;;3.10;;
68176;SDS011;56478;50.982;7.032;2023-08-06T00:05:10;3.80;;;2.92;;
68176;SDS011;56478;50.982;7.032;2023-08-06T00:07:35;3.03;;;2.65;;
68176;SDS011;56478;50.982;7.032;2023-08-06T00:10:01;4.35;;;2.60;;
68176;SDS011;56478;50.982;7.032;2023-08-06T00:12:26;3.83;;;3.13;;
68176;SDS011;56478;50.982;7.032;2023-08-06T00:14:53;3.00;;;2.80;;
68176;SDS011;56478;50.982;7.032;2023-08-06T00:17:19;4.40;;;2.88;;
68176;SDS011;56478;50.982;7.032;2023-08-06T00:19:45;4.47;;;3.20;;
68176;SDS011;56478;50.982;7.032;2023-08-06T00:22:10;6.78;;;3.20;;
68176;SDS011;56478;50.982;7.032;2023-08-06T00:24:36;4.57;;;3.10;;
68176;SDS011;56478;50.982;7.032;2023-08-06T00:27:02;7.75;;;3.30;;
68176;SDS011;56478;50.982;7.032;2023-08-06T00:29:28;7.50;;;3.22;;
68176;SDS011;56478;50.982;7.032;2023-08-06T00:31:54;3.50;;;3.17;;
68176;SDS011;56478;50.982;7.032;2023-08-06T00:34:19;4.50;;;2.95;;
68176;SDS011;56478;50.982;7.032;2023-08-06T00:36:45;6.57;;;3.42;;
68176;SDS011;56478;50.982;7.032;2023-08-06T00:39:11;5.28;;;3.20;;
68176;SDS011;56478;50.982;7.032;2023-08-06T00:41:36;3.15;;;2.90;;
68176;SDS011;56478;50.982;7.032;2023-08-06T00:44:02;5.38;;;3.00;;
68176;SDS011;56478;50.982;7.032;2023-08-06T00:46:28;3.40;;;3.10;;
68176;SDS011;56478;50.982;7.032;2023-08-06T00:48:54;6.63;;;3.17;;
68176;SDS011;56478;50.982;7.032;2023-08-06T00:51:21;3.40;;;3.20;;
68176;SDS011;56478;50.982;7.032;2023-08-06T00:53:48;3.58;;;3.08;;
68176;SDS011;56478;50.982;7.032;2023-08-06T00:56:15;4.15;;;3.13;;
68176;SDS011;56478;50.982;7.032;2023-08-06T00:58:41;3.47;;;2.97;;
68176;SDS011;56478;50.982;7.032;2023-08-06T01:01:06;4.78;;;3.10;;
68176;SDS011;56478;50.982;7.032;2023-08-06T01:03:32;5.03;;;2.90;;
68176;SDS011;56478;50.982;7.032;2023-08-06T01:05:58;3.40;;;3.10;;
68176;SDS011;56478;50.982;7.032;2023-08-06T01:14:32;7.07;;;3.17;;
68176;SDS011;56478;50.982;7.032;2023-08-06T01:17:10;5.82;;;3.10;;
68176;SDS011;56478;50.982;7.032;2023-08-06T01:19:37;5.47;;;3.20;;
68176;SDS011;56478;50.982;7.032;2023-08-06T01:22:03;3.38;;;3.08;;
68176;SDS011;56478;50.982;7.032;2023-08-06T01:24:29;5.35;;;3.28;;
68176;SDS011;56478;50.982;7.032;2023-08-06T01:26:59;3.67;;;3.28;;
68176;SDS011;56478;50.982;7.032;2023-08-06T01:29:33;4.40;;;3.40;;
68176;SDS011;56478;50.982;7.032;2023-08-06T01:32:01;3.60;;;3.30;;
68176;SDS011;56478;50.982;7.032;2023-08-06T01:34:28;3.53;;;3.22;;
68176;SDS011;56478;50.982;7.032;2023-08-06T01:36:57;3.38;;;3.10;;
68176;SDS011;56478;50.982;7.032;2023-08-06T01:39:25;4.03;;;3.15;;
68176;SDS011;56478;50.982;7.032;2023-08-06T01:41:51;4.35;;;3.17;;
68176;SDS011;56478;50.982;7.032;2023-08-06T01:44:16;4.82;;;3.10;;
68176;SDS011;56478;50.982;7.032;2023-08-06T01:46:42;4.72;;;2.95;;
68176;SDS011;56478;50.982;7.032;2023-08-06T01:49:07;4.15;;;3.50;;
68176;SDS011;56478;50.982;7.032;2023-08-06T01:51:33;5.68;;;3.40;;
68176;SDS011;56478;50.982;7.032;2023-08-06T01:53:59;6.07;;;3.20;;
68176;SDS011;56478;50.982;7.032;2023-08-06T01:56:24;3.63;;;3.33;;
68176;SDS011;56478;50.982;7.032;2023-08-06T01:58:50;4.85;;;3.35;;
68176;SDS011;56478;50.982;7.032;2023-08-06T02:01:15;3.78;;;3.10;;
68176;SDS011;56478;50.982;7.032;2023-08-06T02:03:41;3.38;;;3.08;;
68176;SDS011;56478;50.982;7.032;2023-08-06T02:06:06;3.58;;;3.28;;
68176;SDS011;56478;50.982;7.032;2023-08-06T02:08:32;4.38;;;3.33;;
68176;SDS011;56478;50.982;7.032;2023-08-06T02:10:58;6.38;;;3.25;;
68176;SDS011;56478;50.982;7.032;2023-08-06T02:13:24;3.65;;;3.30;;
68176;SDS011;56478;50.982;7.032;2023-08-06T02:15:50;3.70;;;3.40;;
68176;SDS011;56478;50.982;7.032;2023-08-06T02:18:15;4.03;;;3.10;;
68176;SDS011;56478;50.982;7.032;2023-08-06T02:20:41;5.75;;;3.00;;
68176;SDS011;56478;50.982;7.032;2023-08-06T02:23:07;5.32;;;3.33;;
68176;SDS011;56478;50.982;7.032;2023-08-06T02:25:33;4.90;;;3.00;;
68176;SDS011;56478;50.982;7.032;2023-08-06T02:27:59;4.55;;;3.40;;
68176;SDS011;56478;50.982;7.032;2023-08-06T02:30:25;3.28;;;2.97;;
68176;SDS011;56478;50.982;7.032;2023-08-06T02:32:50;3.35;;;3.05;;
68176;SDS011;56478;50.982;7.032;2023-08-06T02:35:16;3.50;;;3.20;;
68176;SDS011;56478;50.982;7.032;2023-08-06T02:37:42;4.20;;;2.95;;
68176;SDS011;56478;50.982;7.032;2023-08-06T02:40:07;3.63;;;3.20;;
68176;SDS011;56478;50.982;7.032;2023-08-06T02:42:33;3.58;;;2.90;;
68176;SDS011;56478;50.982;7.032;2023-08-06T02:44:59;3.08;;;2.83;;
68176;SDS011;56478;50.982;7.032;2023-08-06T02:47:24;2.90;;;2.70;;
68176;SDS011;56478;50.982;7.032;2023-08-06T02:49:50;5.65;;;2.88;;
68176;SDS011;56478;50.982;7.032;2023-08-06T02:52:15;2.92;;;2.72;;
68176;SDS011;56478;50.982;7.032;2023-08-06T02:54:41;3.15;;;2.85;;
68176;SDS011;56478;50.982;7.032;2023-08-06T02:57:07;3.03;;;2.78;;
68176;SDS011;56478;50.982;7.032;2023-08-06T02:59:33;3.00;;;2.70;;
68176;SDS011;56478;50.982;7.032;2023-08-06T03:01:58;3.30;;;2.85;;
68176;SDS011;56478;50.982;7.032;2023-08-06T03:04:24;3.15;;;2.60;;
68176;SDS011;56478;50.982;7.032;2023-08-06T03:06:50;3.13;;;2.83;;
68176;SDS011;56478;50.982;7.032;2023-08-06T03:09:16;5.35;;;2.90;;
68176;SDS011;56478;50.982;7.032;2023-08-06T03:14:10;3.30;;;2.58;;
68176;SDS011;56478;50.982;7.032;2023-08-06T03:16:35;2.85;;;2.65;;
68176;SDS011;56478;50.982;7.032;2023-08-06T03:19:01;4.30;;;2.70;;
68176;SDS011;56478;50.982;7.032;2023-08-06T03:21:27;3.15;;;2.80;;
68176;SDS011;56478;50.982;7.032;2023-08-06T03:23:52;4.10;;;2.80;;
68176;SDS011;56478;50.982;7.032;2023-08-06T03:26:18;3.42;;;2.95;;
68176;SDS011;56478;50.982;7.032;2023-08-06T03:28:43;3.45;;;2.85;;
68176;SDS011;56478;50.982;7.032;2023-08-06T03:31:09;3.25;;;2.92;;
68176;SDS011;56478;50.982;7.032;2023-08-06T03:33:34;6.47;;;3.00;;
68176;SDS011;56478;50.982;7.032;2023-08-06T03:36:00;3.45;;;3.15;;
68176;SDS011;56478;50.982;7.032;2023-08-06T03:38:25;3.53;;;2.80;;
68176;SDS011;56478;50.982;7.032;2023-08-06T03:40:52;3.83;;;2.97;;
68176;SDS011;56478;50.982;7.032;2023-08-06T03:43:18;3.50;;;3.20;;
68176;SDS011;56478;50.982;7.032;2023-08-06T03:45:43;3.75;;;3.15;;
68176;SDS011;56478;50.982;7.032;2023-08-06T03:48:09;3.20;;;3.00;;
68176;SDS011;56478;50.982;7.032;2023-08-06T03:50:35;3.35;;;2.78;;
68176;SDS011;56478;50.982;7.032;2023-08-06T03:53:00;3.40;;;3.10;;
68176;SDS011;56478;50.982;7.032;2023-08-06T03:55:26;3.72;;;2.95;;
68176;SDS011;56478;50.982;7.032;2023-08-06T03:57:52;4.53;;;2.95;;
68176;SDS011;56478;50.982;7.032;2023-08-06T04:00:18;3.13;;;2.92;;
68176;SDS011;56478;50.982;7.032;2023-08-06T04:02:43;3.78;;;3.10;;
68176;SDS011;56478;50.982;7.032;2023-08-06T04:05:09;6.78;;;3.20;;
68176;SDS011;56478;50.982;7.032;2023-08-06T04:07:34;3.15;;;2.90;;
68176;SDS011;56478;50.982;7.032;2023-08-06T04:10:01;3.65;;;3.17;;
68176;SDS011;56478;50.982;7.032;2023-08-06T04:12:28;3.80;;;2.90;;
68176;SDS011;56478;50.982;7.032;2023-08-06T04:14:54;3.05;;;2.75;;
68176;SDS011;56478;50.982;7.032;2023-08-06T04:17:21;4.43;;;2.80;;
68176;SDS011;56478;50.982;7.032;2023-08-06T04:19:47;2.78;;;2.58;;
68176;SDS011;56478;50.982;7.032;2023-08-06T04:22:15;4.00;;;2.80;;
68176;SDS011;56478;50.982;7.032;2023-08-06T04:24:41;3.75;;;2.90;;
68176;SDS011;56478;50.982;7.032;2023-08-06T04:27:08;4.53;;;2.75;;
68176;SDS011;56478;50.982;7.032;2023-08-06T04:29:34;4.63;;;3.13;;
68176;SDS011;56478;50.982;7.032;2023-08-06T04:32:00;2.92;;;2.60;;
68176;SDS011;56478;50.982;7.032;2023-08-06T04:34:25;3.55;;;2.95;;
68176;SDS011;56478;50.982;7.032;2023-08-06T04:36:51;4.97;;;2.90;;
68176;SDS011;56478;50.982;7.032;2023-08-06T04:39:16;3.13;;;2.75;;
68176;SDS011;56478;50.982;7.032;2023-08-06T04:41:42;4.15;;;2.83;;
68176;SDS011;56478;50.982;7.032;2023-08-06T04:44:08;5.57;;;2.88;;
68176;SDS011;56478;50.982;7.032;2023-08-06T04:46:33;2.78;;;2.58;;
68176;SDS011;56478;50.982;7.032;2023-08-06T04:48:59;4.55;;;2.90;;
68176;SDS011;56478;50.982;7.032;2023-08-06T04:51:24;3.35;;;2.90;;
68176;SDS011;56478;50.982;7.032;2023-08-06T04:53:50;4.88;;;2.88;;
68176;SDS011;56478;50.982;7.032;2023-08-06T04:56:16;3.80;;;2.75;;
68176;SDS011;56478;50.982;7.032;2023-08-06T04:58:41;2.90;;;2.58;;
68176;SDS011;56478;50.982;7.032;2023-08-06T05:01:07;3.00;;;2.58;;
68176;SDS011;56478;50.982;7.032;2023-08-06T05:03:33;3.33;;;2.67;;
68176;SDS011;56478;50.982;7.032;2023-08-06T05:05:58;2.80;;;2.58;;
68176;SDS011;56478;50.982;7.032;2023-08-06T05:08:24;3.35;;;3.05;;
68176;SDS011;56478;50.982;7.032;2023-08-06T05:10:49;3.60;;;2.75;;
68176;SDS011;56478;50.982;7.032;2023-08-06T05:13:15;3.53;;;2.60;;
68176;SDS011;56478;50.982;7.032;2023-08-06T05:15:41;6.90;;;2.88;;
68176;SDS011;56478;50.982;7.032;2023-08-06T05:18:08;3.53;;;2.85;;
68176;SDS011;56478;50.982;7.032;2023-08-06T05:20:37;7.03;;;2.33;;
68176;SDS011;56478;50.982;7.032;2023-08-06T05:23:06;4.22;;;2.80;;
68176;SDS011;56478;50.982;7.032;2023-08-06T05:25:31;5.82;;;2.40;;
68176;SDS011;56478;50.982;7.032;2023-08-06T05:27:59;3.30;;;2.67;;
68176;SDS011;56478;50.982;7.032;2023-08-06T05:30:26;5.43;;;2.70;;
68176;SDS011;56478;50.982;7.032;2023-08-06T05:32:52;4.20;;;2.60;;
68176;SDS011;56478;50.982;7.032;2023-08-06T05:35:17;2.90;;;2.53;;
68176;SDS011;56478;50.982;7.032;2023-08-06T05:37:43;3.13;;;2.70;;
68176;SDS011;56478;50.982;7.032;2023-08-06T05:40:08;4.45;;;2.78;;
68176;SDS011;56478;50.982;7.032;2023-08-06T05:42:34;3.28;;;2.42;;
68176;SDS011;56478;50.982;7.032;2023-08-06T05:45:00;4.40;;;2.72;;
68176;SDS011;56478;50.982;7.032;2023-08-06T05:47:25;3.75;;;2.42;;
68176;SDS011;56478;50.982;7.032;2023-08-06T05:49:51;3.67;;;2.53;;
68176;SDS011;56478;50.982;7.032;2023-08-06T05:52:17;4.85;;;2.55;;
68176;SDS011;56478;50.982;7.032;2023-08-06T05:54:42;3.03;;;2.30;;
68176;SDS011;56478;50.982;7.032;2023-08-06T05:57:08;6.40;;;2.78;;
68176;SDS011;56478;50.982;7.032;2023-08-06T05:59:34;5.25;;;2.60;;
68176;SDS011;56478;50.982;7.032;2023-08-06T06:01:59;5.03;;;2.80;;
68176;SDS011;56478;50.982;7.032;2023-08-06T06:04:25;3.15;;;2.70;;
68176;SDS011;56478;50.982;7.032;2023-08-06T06:06:51;4.97;;;2.78;;
68176;SDS011;56478;50.982;7.032;2023-08-06T06:09:16;4.85;;;2.70;;
68176;SDS011;56478;50.982;7.032;2023-08-06T06:11:42;3.80;;;2.80;;
68176;SDS011;56478;50.982;7.032;2023-08-06T06:14:07;2.75;;;2.20;;
68176;SDS011;56478;50.982;7.032;2023-08-06T06:16:33;4.13;;;2.45;;
68176;SDS011;56478;50.982;7.032;2023-08-06T06:18:59;3.17;;;2.42;;
68176;SDS011;56478;50.982;7.032;2023-08-06T06:21:25;3.67;;;2.50;;
68176;SDS011;56478;50.982;7.032;2023-08-06T06:23:51;3.65;;;2.20;;
68176;SDS011;56478;50.982;7.032;2023-08-06T06:26:19;4.60;;;2.65;;
68176;SDS011;56478;50.982;7.032;2023-08-06T06:28:45;2.45;;;2.30;;
68176;SDS011;56478;50.982;7.032;2023-08-06T06:31:10;3.40;;;2.30;;
68176;SDS011;56478;50.982;7.032;2023-08-06T06:33:36;3.85;;;2.42;;
68176;SDS011;56478;50.982;7.032;2023-08-06T06:36:01;2.95;;;2.35;;
68176;SDS011;56478;50.982;7.032;2023-08-06T06:38:29;3.92;;;2.60;;
68176;SDS011;56478;50.982;7.032;2023-08-06T06:40:55;6.07;;;2.30;;
68176;SDS011;56478;50.982;7.032;2023-08-06T06:43:21;3.33;;;2.30;;
68176;SDS011;56478;50.982;7.032;2023-08-06T06:45:47;2.53;;;2.30;;
68176;SDS011;56478;50.982;7.032;2023-08-06T06:48:17;4.13;;;2.72;;
68176;SDS011;56478;50.982;7.032;2023-08-06T06:50:42;2.95;;;2.30;;
68176;SDS011;56478;50.982;7.032;2023-08-06T06:53:08;2.30;;;2.10;;
68176;SDS011;56478;50.982;7.032;2023-08-06T06:55:34;7.43;;;2.25;;
68176;SDS011;56478;50.982;7.032;2023-08-06T06:58:00;3.80;;;2.30;;
68176;SDS011;56478;50.982;7.032;2023-08-06T07:00:25;4.53;;;2.25;;
68176;SDS011;56478;50.982;7.032;2023-08-06T07:02:51;2.65;;;2.20;;
68176;SDS011;56478;50.982;7.032;2023-08-06T07:05:17;2.90;;;2.28;;
68176;SDS011;56478;50.982;7.032;2023-08-06T07:07:43;5.85;;;2.40;;
68176;SDS011;56478;50.982;7.032;2023-08-06T07:10:09;4.40;;;2.20;;
68176;SDS011;56478;50.982;7.032;2023-08-06T07:12:35;2.70;;;1.88;;
68176;SDS011;56478;50.982;7.032;2023-08-06T07:15:03;2.05;;;1.90;;
68176;SDS011;56478;50.982;7.032;2023-08-06T07:17:30;3.70;;;1.85;;
68176;SDS011;56478;50.982;7.032;2023-08-06T07:19:55;2.88;;;1.90;;
68176;SDS011;56478;50.982;7.032;2023-08-06T07:22:21;1.80;;;1.70;;
68176;SDS011;56478;50.982;7.032;2023-08-06T07:24:46;1.92;;;1.73;;
68176;SDS011;56478;50.982;7.032;2023-08-06T07:27:12;2.28;;;1.80;;
68176;SDS011;56478;50.982;7.032;2023-08-06T07:29:37;3.15;;;1.70;;
68176;SDS011;56478;50.982;7.032;2023-08-06T07:32:03;1.95;;;1.52;;
68176;SDS011;56478;50.982;7.032;2023-08-06T07:34:29;1.83;;;1.67;;
68176;SDS011;56478;50.982;7.032;2023-08-06T07:36:54;2.03;;;1.80;;
68176;SDS011;56478;50.982;7.032;2023-08-06T07:39:20;1.70;;;1.60;;
68176;SDS011;56478;50.982;7.032;2023-08-06T07:41:47;2.45;;;1.60;;
68176;SDS011;56478;50.982;7.032;2023-08-06T07:44:12;1.70;;;1.60;;
68176;SDS011;56478;50.982;7.032;2023-08-06T07:46:38;1.45;;;1.40;;
68176;SDS011;56478;50.982;7.032;2023-08-06T07:49:04;1.88;;;1.30;;
68176;SDS011;56478;50.982;7.032;2023-08-06T07:51:29;1.40;;;1.30;;
68176;SDS011;56478;50.982;7.032;2023-08-06T07:53:55;1.30;;;1.30;;
68176;SDS011;56478;50.982;7.032;2023-08-06T07:56:21;1.00;;;1.00;;
68176;SDS011;56478;50.982;7.032;2023-08-06T07:58:47;1.10;;;1.10;;
68176;SDS011;56478;50.982;7.032;2023-08-06T08:01:12;1.20;;;1.20;;
68176;SDS011;56478;50.982;7.032;2023-08-06T08:03:38;1.40;;;1.30;;
68176;SDS011;56478;50.982;7.032;2023-08-06T08:06:03;1.58;;;1.40;;
68176;SDS011;56478;50.982;7.032;2023-08-06T08:08:29;1.40;;;1.30;;
68176;SDS011;56478;50.982;7.032;2023-08-06T08:10:54;1.23;;;1.20;;
68176;SDS011;56478;50.982;7.032;2023-08-06T08:13:20;1.20;;;1.20;;
68176;SDS011;56478;50.982;7.032;2023-08-06T08:15:46;1.55;;;1.45;;
68176;SDS011;56478;50.982;7.032;2023-08-06T08:18:12;1.42;;;1.30;;
68176;SDS011;56478;50.982;7.032;2023-08-06T08:20:37;1.35;;;1.30;;
68176;SDS011;56478;50.982;7.032;2023-08-06T08:23:03;1.10;;;1.10;;
68176;SDS011;56478;50.982;7.032;2023-08-06T08:25:29;1.30;;;1.30;;
68176;SDS011;56478;50.982;7.032;2023-08-06T08:27:56;1.77;;;1.35;;
68176;SDS011;56478;50.982;7.032;2023-08-06T08:30:22;1.20;;;1.20;;
68176;SDS011;56478;50.982;7.032;2023-08-06T08:32:49;1.20;;;1.20;;
68176;SDS011;56478;50.982;7.032;2023-08-06T08:35:16;1.95;;;1.20;;
68176;SDS011;56478;50.982;7.032;2023-08-06T08:37:42;1.33;;;1.27;;
68176;SDS011;56478;50.982;7.032;2023-08-06T08:40:08;3.42;;;1.50;;
68176;SDS011;56478;50.982;7.032;2023-08-06T08:42:35;1.30;;;1.30;;
68176;SDS011;56478;50.982;7.032;2023-08-06T08:45:02;1.38;;;1.38;;
68176;SDS011;56478;50.982;7.032;2023-08-06T08:47:29;1.50;;;1.50;;
68176;SDS011;56478;50.982;7.032;2023-08-06T08:49:56;1.55;;;1.45;;
68176;SDS011;56478;50.982;7.032;2023-08-06T08:52:22;1.23;;;1.23;;
68176;SDS011;56478;50.982;7.032;2023-08-06T08:54:50;1.30;;;1.30;;
68176;SDS011;56478;50.982;7.032;2023-08-06T08:57:18;1.38;;;1.30;;
68176;SDS011;56478;50.982;7.032;2023-08-06T08:59:44;1.50;;;1.40;;
68176;SDS011;56478;50.982;7.032;2023-08-06T09:02:12;1.65;;;1.55;;
68176;SDS011;56478;50.982;7.032;2023-08-06T09:04:40;1.30;;;1.30;;
68176;SDS011;56478;50.982;7.032;2023-08-06T09:07:06;1.27;;;1.27;;
68176;SDS011;56478;50.982;7.032;2023-08-06T09:09:35;2.22;;;1.52;;
68176;SDS011;56478;50.982;7.032;2023-08-06T09:12:05;2.33;;;1.65;;
68176;SDS011;56478;50.982;7.032;2023-08-06T09:14:37;1.73;;;1.55;;
68176;SDS011;56478;50.982;7.032;2023-08-06T09:17:03;1.90;;;1.70;;
68176;SDS011;56478;50.982;7.032;2023-08-06T09:19:31;1.70;;;1.60;;
68176;SDS011;56478;50.982;7.032;2023-08-06T09:21:57;2.10;;;2.00;;
68176;SDS011;56478;50.982;7.032;2023-08-06T09:24:22;3.97;;;2.60;;
68176;SDS011;56478;50.982;7.032;2023-08-06T09:26:49;2.30;;;2.20;;
68176;SDS011;56478;50.982;7.032;2023-08-06T09:29:14;2.80;;;2.60;;
68176;SDS011;56478;50.982;7.032;2023-08-06T09:31:41;2.65;;;2.50;;
68176;SDS011;56478;50.982;7.032;2023-08-06T09:34:25;3.47;;;3.20;;
68176;SDS011;56478;50.982;7.032;2023-08-06T09:36:52;3.00;;;2.90;;
68176;SDS011;56478;50.982;7.032;2023-08-06T09:39:19;2.95;;;2.83;;
68176;SDS011;56478;50.982;7.032;2023-08-06T09:41:46;3.10;;;2.90;;
68176;SDS011;56478;50.982;7.032;2023-08-06T09:44:15;5.72;;;3.60;;
68176;SDS011;56478;50.982;7.032;2023-08-06T09:46:43;4.27;;;3.30;;
68176;SDS011;56478;50.982;7.032;2023-08-06T09:49:12;3.50;;;3.30;;
68176;SDS011;56478;50.982;7.032;2023-08-06T09:51:38;4.13;;;3.78;;
68176;SDS011;56478;50.982;7.032;2023-08-06T09:54:05;3.90;;;3.60;;
68176;SDS011;56478;50.982;7.032;2023-08-06T09:56:33;4.18;;;3.80;;
68176;SDS011;56478;50.982;7.032;2023-08-06T09:59:04;3.95;;;3.65;;
68176;SDS011;56478;50.982;7.032;2023-08-06T10:03:58;4.50;;;4.20;;
68176;SDS011;56478;50.982;7.032;2023-08-06T10:06:25;4.70;;;4.28;;
68176;SDS011;56478;50.982;7.032;2023-08-06T10:08:51;5.72;;;4.18;;
68176;SDS011;56478;50.982;7.032;2023-08-06T10:11:17;4.55;;;4.22;;
68176;SDS011;56478;50.982;7.032;2023-08-06T10:13:46;5.65;;;4.07;;
68176;SDS011;56478;50.982;7.032;2023-08-06T10:16:13;4.32;;;4.03;;
68176;SDS011;56478;50.982;7.032;2023-08-06T10:18:40;4.30;;;3.90;;
68176;SDS011;56478;50.982;7.032;2023-08-06T10:21:09;4.47;;;4.07;;
68176;SDS011;56478;50.982;7.032;2023-08-06T10:23:35;2.60;;;2.40;;
68176;SDS011;56478;50.982;7.032;2023-08-06T10:26:03;1.92;;;1.77;;
68176;SDS011;56478;50.982;7.032;2023-08-06T10:28:38;1.27;;;1.20;;
68176;SDS011;56478;50.982;7.032;2023-08-06T10:31:04;1.27;;;1.17;;
68176;SDS011;56478;50.982;7.032;2023-08-06T10:33:44;1.52;;;0.85;;
68176;SDS011;56478;50.982;7.032;2023-08-06T10:36:10;0.80;;;0.80;;
68176;SDS011;56478;50.982;7.032;2023-08-06T10:38:46;0.55;;;0.55;;
68176;SDS011;56478;50.982;7.032;2023-08-06T10:41:31;1.27;;;0.68;;
68176;SDS011;56478;50.982;7.032;2023-08-06T10:44:06;0.80;;;0.80;;
68176;SDS011;56478;50.982;7.032;2023-08-06T10:46:36;0.82;;;0.82;;
68176;SDS011;56478;50.982;7.032;2023-08-06T10:49:02;0.95;;;0.95;;
68176;SDS011;56478;50.982;7.032;2023-08-06T10:51:28;1.00;;;1.00;;
68176;SDS011;56478;50.982;7.032;2023-08-06T10:53:54;1.08;;;1.08;;
68176;SDS011;56478;50.982;7.032;2023-08-06T10:56:24;2.00;;;1.58;;
68176;SDS011;56478;50.982;7.032;2023-08-06T10:58:53;1.27;;;1.23;;
68176;SDS011;56478;50.982;7.032;2023-08-06T11:01:22;3.92;;;1.35;;
68176;SDS011;56478;50.982;7.032;2023-08-06T11:03:48;1.50;;;1.40;;
68176;SDS011;56478;50.982;7.032;2023-08-06T11:06:18;1.60;;;1.50;;
68176;SDS011;56478;50.982;7.032;2023-08-06T11:08:49;1.60;;;1.50;;
68176;SDS011;56478;50.982;7.032;2023-08-06T11:11:16;1.80;;;1.70;;
68176;SDS011;56478;50.982;7.032;2023-08-06T11:13:43;2.28;;;1.88;;
68176;SDS011;56478;50.982;7.032;2023-08-06T11:16:13;1.98;;;1.70;;
68176;SDS011;56478;50.982;7.032;2023-08-06T11:18:40;2.05;;;1.95;;
68176;SDS011;56478;50.982;7.032;2023-08-06T11:21:07;2.25;;;2.13;;
68176;SDS011;56478;50.982;7.032;2023-08-06T11:23:33;2.85;;;2.10;;
68176;SDS011;56478;50.982;7.032;2023-08-06T11:25:59;2.58;;;2.33;;
68176;SDS011;56478;50.982;7.032;2023-08-06T11:28:25;5.78;;;2.10;;
68176;SDS011;56478;50.982;7.032;2023-08-06T11:30:51;2.40;;;2.20;;
68176;SDS011;56478;50.982;7.032;2023-08-06T11:33:20;4.15;;;2.00;;
68176;SDS011;56478;50.982;7.032;2023-08-06T11:35:47;2.53;;;2.30;;
68176;SDS011;56478;50.982;7.032;2023-08-06T11:38:13;3.67;;;2.20;;
68176;SDS011;56478;50.982;7.032;2023-08-06T11:40:39;3.20;;;2.33;;
68176;SDS011;56478;50.982;7.032;2023-08-06T11:43:05;3.55;;;2.10;;
68176;SDS011;56478;50.982;7.032;2023-08-06T11:45:31;2.45;;;2.25;;
68176;SDS011;56478;50.982;7.032;2023-08-06T11:47:59;3.78;;;2.33;;
68176;SDS011;56478;50.982;7.032;2023-08-06T11:50:25;2.85;;;2.28;;
68176;SDS011;56478;50.982;7.032;2023-08-06T11:52:59;2.55;;;2.33;;
68176;SDS011;56478;50.982;7.032;2023-08-06T11:55:25;4.25;;;2.55;;
68176;SDS011;56478;50.982;7.032;2023-08-06T11:57:53;3.58;;;2.60;;
68176;SDS011;56478;50.982;7.032;2023-08-06T12:00:19;5.55;;;2.80;;
68176;SDS011;56478;50.982;7.032;2023-08-06T12:02:48;3.17;;;2.47;;
68176;SDS011;56478;50.982;7.032;2023-08-06T12:05:15;5.97;;;2.67;;
68176;SDS011;56478;50.982;7.032;2023-08-06T12:07:41;5.40;;;2.50;;
68176;SDS011;56478;50.982;7.032;2023-08-06T12:10:08;4.38;;;2.45;;
68176;SDS011;56478;50.982;7.032;2023-08-06T12:12:35;4.57;;;2.70;;
68176;SDS011;56478;50.982;7.032;2023-08-06T12:15:01;2.60;;;2.40;;
68176;SDS011;56478;50.982;7.032;2023-08-06T12:17:27;3.00;;;2.20;;
68176;SDS011;56478;50.982;7.032;2023-08-06T12:19:53;2.58;;;2.10;;
68176;SDS011;56478;50.982;7.032;2023-08-06T12:22:19;3.00;;;1.98;;
68176;SDS011;56478;50.982;7.032;2023-08-06T12:24:45;4.03;;;2.28;;
68176;SDS011;56478;50.982;7.032;2023-08-06T12:27:11;4.82;;;2.10;;
68176;SDS011;56478;50.982;7.032;2023-08-06T12:29:40;4.78;;;2.10;;
68176;SDS011;56478;50.982;7.032;2023-08-06T12:32:07;3.42;;;2.08;;
68176;SDS011;56478;50.982;7.032;2023-08-06T12:34:33;4.47;;;2.00;;
68176;SDS011;56478;50.982;7.032;2023-08-06T12:36:59;2.20;;;1.70;;
68176;SDS011;56478;50.982;7.032;2023-08-06T12:39:24;2.10;;;1.90;;
68176;SDS011;56478;50.982;7.032;2023-08-06T12:41:53;3.30;;;2.00;;
68176;SDS011;56478;50.982;7.032;2023-08-06T12:44:19;4.78;;;1.83;;
68176;SDS011;56478;50.982;7.032;2023-08-06T12:46:45;3.83;;;1.90;;
68176;SDS011;56478;50.982;7.032;2023-08-06T12:49:10;5.18;;;1.80;;
68176;SDS011;56478;50.982;7.032;2023-08-06T12:51:36;3.30;;;1.83;;
68176;SDS011;56478;50.982;7.032;2023-08-06T12:54:02;3.80;;;1.98;;
68176;SDS011;56478;50.982;7.032;2023-08-06T12:56:27;3.70;;;1.83;;
68176;SDS011;56478;50.982;7.032;2023-08-06T12:58:54;4.75;;;2.00;;
68176;SDS011;56478;50.982;7.032;2023-08-06T13:01:19;2.30;;;1.90;;
68176;SDS011;56478;50.982;7.032;2023-08-06T13:03:45;3.55;;;1.80;;
68176;SDS011;56478;50.982;7.032;2023-08-06T13:06:11;2.75;;;1.83;;
68176;SDS011;56478;50.982;7.032;2023-08-06T13:08:37;5.20;;;2.20;;
68176;SDS011;56478;50.982;7.032;2023-08-06T13:11:03;3.00;;;2.00;;
68176;SDS011;56478;50.982;7.032;2023-08-06T13:13:28;3.45;;;2.10;;
68176;SDS011;56478;50.982;7.032;2023-08-06T13:15:54;4.53;;;2.10;;
68176;SDS011;56478;50.982;7.032;2023-08-06T13:18:20;4.50;;;2.22;;
68176;SDS011;56478;50.982;7.032;2023-08-06T13:20:45;3.45;;;2.30;;
68176;SDS011;56478;50.982;7.032;2023-08-06T13:23:12;3.28;;;2.20;;
68176;SDS011;56478;50.982;7.032;2023-08-06T13:25:40;3.83;;;2.20;;
68176;SDS011;56478;50.982;7.032;2023-08-06T13:28:06;3.85;;;2.20;;
68176;SDS011;56478;50.982;7.032;2023-08-06T13:30:31;2.80;;;2.30;;
68176;SDS011;56478;50.982;7.032;2023-08-06T13:32:57;3.60;;;2.10;;
68176;SDS011;56478;50.982;7.032;2023-08-06T13:35:23;2.67;;;2.10;;
68176;SDS011;56478;50.982;7.032;2023-08-06T13:37:49;3.95;;;2.40;;
68176;SDS011;56478;50.982;7.032;2023-08-06T13:40:15;2.22;;;2.08;;
68176;SDS011;56478;50.982;7.032;2023-08-06T13:42:40;2.40;;;2.20;;
68176;SDS011;56478;50.982;7.032;2023-08-06T13:45:06;2.78;;;2.25;;
68176;SDS011;56478;50.982;7.032;2023-08-06T13:47:32;3.38;;;2.25;;
68176;SDS011;56478;50.982;7.032;2023-08-06T13:49:58;2.53;;;2.28;;
68176;SDS011;56478;50.982;7.032;2023-08-06T13:52:25;2.75;;;2.30;;
68176;SDS011;56478;50.982;7.032;2023-08-06T13:54:51;2.55;;;2.00;;
68176;SDS011;56478;50.982;7.032;2023-08-06T13:57:17;3.83;;;2.30;;
68176;SDS011;56478;50.982;7.032;2023-08-06T13:59:43;2.75;;;2.28;;
68176;SDS011;56478;50.982;7.032;2023-08-06T14:02:09;4.60;;;2.25;;
68176;SDS011;56478;50.982;7.032;2023-08-06T14:04:35;2.78;;;2.20;;
68176;SDS011;56478;50.982;7.032;2023-08-06T14:07:02;2.20;;;2.05;;
68176;SDS011;56478;50.982;7.032;2023-08-06T14:09:28;3.80;;;2.50;;
68176;SDS011;56478;50.982;7.032;2023-08-06T14:11:54;4.65;;;2.40;;
68176;SDS011;56478;50.982;7.032;2023-08-06T14:14:20;3.33;;;2.60;;
68176;SDS011;56478;50.982;7.032;2023-08-06T14:16:51;3.42;;;2.42;;
68176;SDS011;56478;50.982;7.032;2023-08-06T14:21:45;3.05;;;2.50;;
68176;SDS011;56478;50.982;7.032;2023-08-06T14:24:11;3.85;;;2.80;;
68176;SDS011;56478;50.982;7.032;2023-08-06T14:26:36;3.10;;;2.80;;
68176;SDS011;56478;50.982;7.032;2023-08-06T14:29:02;5.15;;;2.47;;
68176;SDS011;56478;50.982;7.032;2023-08-06T14:31:28;5.15;;;2.83;;
68176;SDS011;56478;50.982;7.032;2023-08-06T14:33:54;6.43;;;2.45;;
68176;SDS011;56478;50.982;7.032;2023-08-06T14:36:19;5.10;;;1.90;;
68176;SDS011;56478;50.982;7.032;2023-08-06T14:38:45;6.40;;;2.10;;
68176;SDS011;56478;50.982;7.032;2023-08-06T14:41:10;4.43;;;2.05;;
68176;SDS011;56478;50.982;7.032;2023-08-06T14:43:36;7.18;;;1.90;;
68176;SDS011;56478;50.982;7.032;2023-08-06T14:46:02;3.80;;;1.98;;
68176;SDS011;56478;50.982;7.032;2023-08-06T14:48:28;7.13;;;1.83;;
68176;SDS011;56478;50.982;7.032;2023-08-06T14:50:54;5.90;;;1.90;;
68176;SDS011;56478;50.982;7.032;2023-08-06T14:53:20;6.05;;;2.10;;
68176;SDS011;56478;50.982;7.032;2023-08-06T14:55:45;2.60;;;1.75;;